createdAt,value
2018-06-14T00:00:37.978Z,97969.09
2018-06-14T00:01:43.059Z,97964.13
2018-06-14T00:02:47.668Z,97970.28
2018-06-14T00:03:52.642Z,97970.28
2018-06-14T00:04:57.961Z,97967.33
2018-06-14T00:06:02.521Z,97970.16
2018-06-14T00:07:07.021Z,97978.25
2018-06-14T00:08:11.549Z,97977.56
2018-06-14T00:09:16.067Z,97972.70
2018-06-14T00:10:21.001Z,97980.52
2018-06-14T00:11:25.513Z,97977.97
2018-06-14T00:12:30.015Z,97975.30
2018-06-14T00:13:35.482Z,97978.50
2018-06-14T00:14:40.042Z,97979.06
2018-06-14T00:15:44.602Z,97978.41
2018-06-14T00:16:49.574Z,97978.23
2018-06-14T00:17:54.132Z,97970.02
2018-06-14T00:18:58.766Z,97970.87
2018-06-14T00:20:03.279Z,97968.94
2018-06-14T00:21:07.887Z,97976.30
2018-06-14T00:22:12.859Z,97979.86
2018-06-14T00:23:17.803Z,97980.66
2018-06-14T00:24:22.313Z,97980.42
2018-06-14T00:25:28.140Z,97978.11
2018-06-14T00:26:34.304Z,97979.61
2018-06-14T00:27:41.229Z,97979.33
2018-06-14T00:28:46.592Z,97977.06
2018-06-14T00:29:52.090Z,97978.41
2018-06-14T00:30:57.970Z,97977.97
2018-06-14T00:32:03.350Z,97978.25
2018-06-14T00:33:08.120Z,97977.80
2018-06-14T00:34:13.100Z,97975.22
2018-06-14T00:35:18.120Z,97978.46
2018-06-14T00:36:23.933Z,97973.64
2018-06-14T00:37:29.014Z,97971.77
2018-06-14T00:38:34.172Z,97972.78
2018-06-14T00:39:39.708Z,97972.63
2018-06-14T00:40:44.973Z,97977.56
2018-06-14T00:41:50.584Z,97980.16
2018-06-14T00:42:56.116Z,97977.08
2018-06-14T00:44:02.273Z,97979.39
2018-06-14T00:45:08.410Z,97973.73
2018-06-14T00:46:13.544Z,97973.37
2018-06-14T00:47:19.689Z,97981.06
2018-06-14T00:48:25.473Z,97973.81
2018-06-14T00:49:30.331Z,97978.26
2018-06-14T00:50:36.013Z,97978.26
2018-06-14T00:51:41.321Z,97978.09
2018-06-14T00:52:46.435Z,97977.00
2018-06-14T00:53:51.930Z,97976.77
2018-06-14T00:54:57.248Z,97979.16
2018-06-14T00:56:02.517Z,97977.17
2018-06-14T00:57:12.450Z,97981.58
2018-06-14T00:58:17.560Z,97981.58
2018-06-14T00:59:22.285Z,97980.77
2018-06-14T01:00:27.725Z,97977.23
2018-06-14T01:01:34.039Z,97982.41
2018-06-14T01:02:38.833Z,97980.27
2018-06-14T01:03:44.114Z,97984.19
2018-06-14T01:04:48.741Z,97979.70
2018-06-14T01:05:53.365Z,97975.41
2018-06-14T01:06:58.025Z,97979.84
2018-06-14T01:08:04.118Z,97978.80
2018-06-14T01:09:09.221Z,97977.41
2018-06-14T01:10:13.890Z,97975.00
2018-06-14T01:11:19.629Z,97976.81
2018-06-14T01:12:27.328Z,97972.98
2018-06-14T01:13:32.686Z,97973.42
2018-06-14T01:14:39.801Z,97969.22
2018-06-14T01:15:44.405Z,97973.37
2018-06-14T01:16:48.911Z,97973.88
2018-06-14T01:17:54.897Z,97976.47
2018-06-14T01:18:59.391Z,97979.19
2018-06-14T01:20:03.925Z,97979.32
2018-06-14T01:21:10.061Z,97977.05
2018-06-14T01:22:16.752Z,97983.41
2018-06-14T01:23:21.262Z,97976.91
2018-06-14T01:24:27.129Z,97978.82
2018-06-14T01:25:31.685Z,97982.00
2018-06-14T01:26:36.496Z,97985.47
2018-06-14T01:27:44.201Z,97984.93
2018-06-14T01:28:49.363Z,97982.50
2018-06-14T01:29:53.895Z,97981.47
2018-06-14T01:30:58.785Z,97986.85
2018-06-14T01:32:03.767Z,97980.81
2018-06-14T01:33:10.491Z,97978.01
2018-06-14T01:34:16.500Z,97983.53
2018-06-14T01:35:21.694Z,97983.84
2018-06-14T01:36:26.365Z,97983.61
2018-06-14T01:37:36.202Z,97981.84
2018-06-14T01:38:40.740Z,97976.25
2018-06-14T01:39:45.377Z,97976.21
2018-06-14T01:40:50.362Z,97978.56
2018-06-14T01:41:54.881Z,97983.14
2018-06-14T01:42:59.356Z,97975.80
2018-06-14T01:44:04.141Z,97973.63
2018-06-14T01:45:10.750Z,97976.17
2018-06-14T01:46:16.107Z,97969.43
2018-06-14T01:47:21.132Z,97965.79
2018-06-14T01:48:25.875Z,97965.79
2018-06-14T01:49:30.949Z,97967.95
2018-06-14T01:50:36.325Z,97967.81
2018-06-14T01:51:41.890Z,97970.69
2018-06-14T01:52:50.183Z,97970.75
2018-06-14T01:53:55.094Z,97969.83
2018-06-14T01:54:59.832Z,97961.36
2018-06-14T01:56:04.492Z,97957.23
2018-06-14T01:57:09.297Z,97962.16
2018-06-14T01:58:14.015Z,97962.45
2018-06-14T01:59:19.613Z,97964.45
2018-06-14T02:00:26.086Z,97968.47
2018-06-14T02:01:31.071Z,97960.14
2018-06-14T02:02:36.091Z,97964.80
2018-06-14T02:03:41.573Z,97966.28
2018-06-14T02:04:47.112Z,97970.17
2018-06-14T02:05:52.884Z,97963.70
2018-06-14T02:07:00.017Z,97969.80
2018-06-14T02:08:06.167Z,97965.95
2018-06-14T02:09:11.024Z,97967.11
2018-06-14T02:10:16.480Z,97969.41
2018-06-14T02:11:22.622Z,97965.84
2018-06-14T02:12:28.202Z,97965.31
2018-06-14T02:13:34.135Z,97967.73
2018-06-14T02:14:38.927Z,97968.98
2018-06-14T02:15:43.587Z,97964.29
2018-06-14T02:16:49.387Z,97963.27
2018-06-14T02:17:55.501Z,97967.00
2018-06-14T02:19:03.586Z,97967.53
2018-06-14T02:20:08.180Z,97969.06
2018-06-14T02:21:13.439Z,97968.70
2018-06-14T02:22:18.209Z,97963.20
2018-06-14T02:23:22.891Z,97965.89
2018-06-14T02:24:27.753Z,97968.20
2018-06-14T02:25:34.360Z,97970.59
2018-06-14T02:26:39.361Z,97968.03
2018-06-14T02:27:44.721Z,97972.23
2018-06-14T02:28:49.492Z,97967.46
2018-06-14T02:29:54.508Z,97974.36
2018-06-14T02:31:00.298Z,97972.47
2018-06-14T02:32:06.397Z,97975.02
2018-06-14T02:33:12.219Z,97977.52
2018-06-14T02:34:17.519Z,97974.92
2018-06-14T02:35:23.809Z,97974.56
2018-06-14T02:36:29.678Z,97977.56
2018-06-14T02:37:42.841Z,97986.45
2018-06-14T02:38:47.807Z,97987.64
2018-06-14T02:39:54.834Z,97987.13
2018-06-14T02:41:00.204Z,97985.23
2018-06-14T02:42:06.178Z,97987.73
2018-06-14T02:43:11.780Z,97981.51
2018-06-14T02:44:17.491Z,97981.50
2018-06-14T02:45:22.757Z,97991.00
2018-06-14T02:46:27.649Z,97981.87
2018-06-14T02:47:33.022Z,97984.73
2018-06-14T02:48:38.609Z,97982.85
2018-06-14T02:49:45.106Z,97984.73
2018-06-14T02:50:51.277Z,97985.25
2018-06-14T02:51:57.345Z,97981.20
2018-06-14T02:53:02.336Z,97979.94
2018-06-14T02:54:07.567Z,97974.63
2018-06-14T02:55:13.090Z,97975.06
2018-06-14T02:56:17.969Z,97974.33
2018-06-14T02:57:23.647Z,97971.31
2018-06-14T02:58:29.942Z,97974.11
2018-06-14T02:59:35.232Z,97974.48
2018-06-14T03:00:41.142Z,97972.02
2018-06-14T03:01:46.748Z,97973.27
2018-06-14T03:02:51.597Z,97969.45
2018-06-14T03:03:57.107Z,97976.88
2018-06-14T03:05:02.602Z,97977.50
2018-06-14T03:06:07.669Z,97975.06
2018-06-14T03:07:17.563Z,97977.89
2018-06-14T03:08:22.429Z,97976.62
2018-06-14T03:09:27.524Z,97973.18
2018-06-14T03:10:32.812Z,97977.98
2018-06-14T03:11:38.418Z,97972.73
2018-06-14T03:12:43.043Z,97972.48
2018-06-14T03:13:47.817Z,97972.06
2018-06-14T03:14:52.731Z,97969.87
2018-06-14T03:15:58.821Z,97975.86
2018-06-14T03:17:03.600Z,97973.99
2018-06-14T03:18:09.663Z,97976.75
2018-06-14T03:19:14.854Z,97973.30
2018-06-14T03:20:25.121Z,97972.67
2018-06-14T03:21:30.120Z,97974.68
2018-06-14T03:22:34.860Z,97971.94
2018-06-14T03:23:39.554Z,97977.00
2018-06-14T03:24:44.222Z,97971.05
2018-06-14T03:25:48.913Z,97965.61
2018-06-14T03:26:53.599Z,97965.77
2018-06-14T03:27:59.055Z,97966.51
2018-06-14T03:29:03.779Z,97960.99
2018-06-14T03:30:11.339Z,97967.23
2018-06-14T03:31:17.830Z,97969.25
2018-06-14T03:32:22.573Z,97959.73
2018-06-14T03:33:27.228Z,97962.62
2018-06-14T03:34:33.175Z,97961.81
2018-06-14T03:35:37.791Z,97959.48
2018-06-14T03:36:42.601Z,97954.37
2018-06-14T03:37:47.563Z,97961.14
2018-06-14T03:38:52.969Z,97956.80
2018-06-14T03:39:57.987Z,97957.83
2018-06-14T03:41:03.430Z,97951.52
2018-06-14T03:42:12.388Z,97954.61
2018-06-14T03:43:17.069Z,97947.92
2018-06-14T03:44:21.679Z,97948.38
2018-06-14T03:45:29.258Z,97947.50
2018-06-14T03:46:34.301Z,97947.62
2018-06-14T03:47:38.871Z,97947.75
2018-06-14T03:48:43.460Z,97952.17
2018-06-14T03:49:48.323Z,97950.42
2018-06-14T03:50:53.719Z,97945.72
2018-06-14T03:52:00.026Z,97940.31
2018-06-14T03:53:05.320Z,97939.94
2018-06-14T03:54:10.458Z,97936.42
2018-06-14T03:55:15.680Z,97939.95
2018-06-14T03:56:22.463Z,97940.86
2018-06-14T03:57:27.232Z,97945.38
2018-06-14T03:58:34.046Z,97945.75
2018-06-14T03:59:39.354Z,97940.38
2018-06-14T04:00:44.334Z,97941.44
2018-06-14T04:01:49.181Z,97940.39
2018-06-14T04:02:54.710Z,97942.52
2018-06-14T04:04:00.262Z,97938.58
2018-06-14T04:05:05.428Z,97937.02
2018-06-14T04:06:11.736Z,97939.73
2018-06-14T04:07:16.564Z,97941.50
2018-06-14T04:08:21.622Z,97938.83
2018-06-14T04:09:26.645Z,97938.77
2018-06-14T04:10:32.052Z,97939.41
2018-06-14T04:11:38.280Z,97942.41
2018-06-14T04:12:44.101Z,97942.52
2018-06-14T04:13:50.275Z,97937.89
2018-06-14T04:14:56.579Z,97935.45
2018-06-14T04:16:01.672Z,97938.19
2018-06-14T04:17:07.135Z,97933.55
2018-06-14T04:18:11.837Z,97937.77
2018-06-14T04:19:18.412Z,97937.63
2018-06-14T04:20:23.885Z,97941.23
2018-06-14T04:21:29.893Z,97946.77
2018-06-14T04:22:35.318Z,97947.20
2018-06-14T04:23:39.972Z,97948.75
2018-06-14T04:24:44.828Z,97947.91
2018-06-14T04:25:50.486Z,97950.14
2018-06-14T04:26:56.389Z,97945.34
2018-06-14T04:28:01.187Z,97943.95
2018-06-14T04:29:11.734Z,97954.25
2018-06-14T04:30:16.538Z,97952.05
2018-06-14T04:31:21.249Z,97947.86
2018-06-14T04:32:25.974Z,97956.04
2018-06-14T04:33:32.288Z,97953.75
2018-06-14T04:34:36.902Z,97957.08
2018-06-14T04:35:42.899Z,97959.77
2018-06-14T04:36:50.596Z,97958.75
2018-06-14T04:37:56.228Z,97960.30
2018-06-14T04:39:00.829Z,97957.95
2018-06-14T04:40:06.099Z,97959.51
2018-06-14T04:41:11.920Z,97962.50
2018-06-14T04:42:18.450Z,97957.20
2018-06-14T04:43:23.081Z,97954.99
2018-06-14T04:44:28.249Z,97965.37
2018-06-14T04:45:32.861Z,97967.81
2018-06-14T04:46:38.375Z,97964.57
2018-06-14T04:47:43.745Z,97965.98
2018-06-14T04:48:48.948Z,97966.33
2018-06-14T04:49:54.147Z,97966.47
2018-06-14T04:50:59.257Z,97962.37
2018-06-14T04:52:05.103Z,97964.29
2018-06-14T04:53:11.296Z,97961.62
2018-06-14T04:54:15.851Z,97958.45
2018-06-14T04:55:20.467Z,97960.95
2018-06-14T04:56:25.793Z,97960.95
2018-06-14T04:57:30.782Z,97957.72
2018-06-14T04:58:37.042Z,97955.95
2018-06-14T04:59:42.929Z,97953.01
2018-06-14T05:00:47.699Z,97956.91
2018-06-14T05:01:52.348Z,97959.16
2018-06-14T05:02:57.441Z,97953.45
2018-06-14T05:04:04.330Z,97951.97
2018-06-14T05:05:09.179Z,97958.52
2018-06-14T05:06:13.831Z,97959.34
2018-06-14T05:07:20.755Z,97957.56
2018-06-14T05:08:25.942Z,97958.67
2018-06-14T05:09:30.955Z,97955.14
2018-06-14T05:10:36.115Z,97960.44
2018-06-14T05:11:41.226Z,97962.06
2018-06-14T05:12:46.291Z,97960.95
2018-06-14T05:13:52.237Z,97956.09
2018-06-14T05:14:56.908Z,97955.66
2018-06-14T05:16:02.778Z,97953.30
2018-06-14T05:17:07.784Z,97956.91
2018-06-14T05:18:12.409Z,97958.45
2018-06-14T05:19:17.201Z,97953.47
2018-06-14T05:20:21.856Z,97956.13
2018-06-14T05:21:26.600Z,97954.05
2018-06-14T05:22:31.289Z,97947.28
2018-06-14T05:23:36.292Z,97941.44
2018-06-14T05:24:40.913Z,97946.80
2018-06-14T05:25:48.361Z,97948.36
2018-06-14T05:26:53.925Z,97942.53
2018-06-14T05:28:03.458Z,97947.98
2018-06-14T05:29:09.158Z,97943.27
2018-06-14T05:30:15.021Z,97945.45
2018-06-14T05:31:19.682Z,97946.58
2018-06-14T05:32:24.914Z,97944.73
2018-06-14T05:33:29.608Z,97946.55
2018-06-14T05:34:36.145Z,97947.73
2018-06-14T05:35:41.288Z,97950.40
2018-06-14T05:36:46.003Z,97952.54
2018-06-14T05:37:50.718Z,97944.57
2018-06-14T05:38:55.451Z,97949.27
2018-06-14T05:40:00.116Z,97945.19
2018-06-14T05:41:04.801Z,97944.57
2018-06-14T05:42:09.776Z,97947.94
2018-06-14T05:43:15.450Z,97943.25
2018-06-14T05:44:20.448Z,97947.66
2018-06-14T05:45:25.249Z,97941.78
2018-06-14T05:47:40.123Z,97934.38
2018-06-14T05:48:46.801Z,97934.38
2018-06-14T05:49:51.481Z,97935.52
2018-06-14T05:50:56.148Z,97932.75
2018-06-14T05:52:00.807Z,97932.98
2018-06-14T05:53:06.258Z,97926.83
2018-06-14T05:54:11.335Z,97930.54
2018-06-14T05:55:15.996Z,97933.55
2018-06-14T05:56:20.654Z,97931.94
2018-06-14T05:57:25.377Z,97931.24
2018-06-14T05:58:30.072Z,97935.48
2018-06-14T05:59:35.207Z,97929.65
2018-06-14T06:00:40.368Z,97929.28
2018-06-14T06:01:45.774Z,97936.45
2018-06-14T06:02:51.549Z,97931.19
2018-06-14T06:03:56.275Z,97932.19
2018-06-14T06:05:00.995Z,97935.06
2018-06-14T06:06:05.705Z,97935.89
2018-06-14T06:07:10.873Z,97937.08
2018-06-14T06:08:15.530Z,97935.51
2018-06-14T06:09:20.186Z,97936.95
2018-06-14T06:10:24.804Z,97931.41
2018-06-14T06:11:30.385Z,97925.16
2018-06-14T06:12:35.975Z,97926.70
2018-06-14T06:13:44.374Z,97924.00
2018-06-14T06:14:49.016Z,97923.91
2018-06-14T06:15:53.707Z,97922.12
2018-06-14T06:16:58.377Z,97922.88
2018-06-14T06:18:03.074Z,97920.27
2018-06-14T06:19:09.178Z,97929.61
2018-06-14T06:20:20.675Z,97922.90
2018-06-14T06:21:25.305Z,97923.78
2018-06-14T06:22:29.939Z,97925.31
2018-06-14T06:23:34.740Z,97923.23
2018-06-14T06:24:40.885Z,97923.45
2018-06-14T06:25:46.551Z,97923.80
2018-06-14T06:26:51.161Z,97922.19
2018-06-14T06:27:56.806Z,97926.13
2018-06-14T06:29:01.413Z,97921.88
2018-06-14T06:30:07.058Z,97929.52
2018-06-14T06:31:11.574Z,97925.31
2018-06-14T06:32:16.444Z,97929.72
2018-06-14T06:33:21.164Z,97929.36
2018-06-14T06:34:26.205Z,97926.91
2018-06-14T06:35:31.313Z,97921.58
2018-06-14T06:36:36.707Z,97921.97
2018-06-14T06:37:41.278Z,97920.94
2018-06-14T06:38:46.545Z,97922.33
2018-06-14T06:39:51.080Z,97929.56
2018-06-14T06:40:56.196Z,97924.32
2018-06-14T06:42:00.685Z,97925.16
2018-06-14T06:43:05.254Z,97925.28
2018-06-14T06:44:10.125Z,97921.94
2018-06-14T06:45:15.313Z,97923.52
2018-06-14T06:46:22.086Z,97920.58
2018-06-14T06:47:26.758Z,97922.84
2018-06-14T06:48:32.958Z,97919.66
2018-06-14T06:49:37.666Z,97914.11
2018-06-14T06:50:42.973Z,97919.03
2018-06-14T06:51:48.130Z,97919.48
2018-06-14T06:52:52.919Z,97920.44
2018-06-14T06:53:57.612Z,97916.91
2018-06-14T06:55:03.199Z,97918.47
2018-06-14T06:56:07.861Z,97914.06
2018-06-14T06:57:12.953Z,97918.80
2018-06-14T06:58:18.863Z,97921.61
2018-06-14T06:59:24.392Z,97919.20
2018-06-14T07:00:29.039Z,97918.70
2018-06-14T07:01:33.811Z,97921.47
2018-06-14T07:02:38.636Z,97919.33
2018-06-14T07:03:44.454Z,97921.41
2018-06-14T07:04:50.302Z,97915.44
2018-06-14T07:05:54.991Z,97918.23
2018-06-14T07:06:59.778Z,97918.39
2018-06-14T07:08:05.236Z,97921.27
2018-06-14T07:09:12.464Z,97916.84
2018-06-14T07:10:18.572Z,97912.35
2018-06-14T07:11:24.607Z,97910.56
2018-06-14T07:12:29.927Z,97915.25
2018-06-14T07:13:35.778Z,97919.28
2018-06-14T07:14:40.616Z,97914.36
2018-06-14T07:15:50.151Z,97904.58
2018-06-14T07:16:55.417Z,97908.72
2018-06-14T07:18:00.633Z,97904.91
2018-06-14T07:19:05.297Z,97912.37
2018-06-14T07:20:10.937Z,97917.21
2018-06-14T07:21:15.562Z,97910.19
2018-06-14T07:22:21.431Z,97909.55
2018-06-14T07:23:27.984Z,97906.63
2018-06-14T07:24:32.633Z,97908.98
2018-06-14T07:25:37.335Z,97908.41
2018-06-14T07:26:42.437Z,97904.16
2018-06-14T07:27:47.155Z,97911.58
2018-06-14T07:28:51.919Z,97909.40
2018-06-14T07:30:01.103Z,97907.11
2018-06-14T07:31:05.880Z,97900.71
2018-06-14T07:32:11.439Z,97902.72
2018-06-14T07:33:16.132Z,97898.73
2018-06-14T07:34:20.821Z,97902.81
2018-06-14T07:35:27.880Z,97900.36
2018-06-14T07:36:37.137Z,97901.75
2018-06-14T07:37:44.381Z,97901.30
2018-06-14T07:38:49.755Z,97897.72
2018-06-14T07:39:54.578Z,97903.46
2018-06-14T07:41:00.322Z,97911.78
2018-06-14T07:42:06.405Z,97901.61
2018-06-14T07:43:11.666Z,97899.62
2018-06-14T07:44:17.424Z,97897.59
2018-06-14T07:45:22.113Z,97900.03
2018-06-14T07:46:27.736Z,97902.22
2018-06-14T07:47:48.699Z,97897.15
2018-06-14T07:48:53.294Z,97905.59
2018-06-14T07:49:59.785Z,97897.83
2018-06-14T07:51:05.723Z,97902.73
2018-06-14T07:52:10.484Z,97902.30
2018-06-14T07:53:15.275Z,97898.66
2018-06-14T07:54:20.070Z,97903.59
2018-06-14T07:55:26.006Z,97905.91
2018-06-14T07:56:30.841Z,97905.44
2018-06-14T07:57:35.561Z,97907.88
2018-06-14T07:58:40.340Z,97903.95
2018-06-14T07:59:46.346Z,97902.91
2018-06-14T08:00:51.082Z,97905.43
2018-06-14T08:01:56.300Z,97905.78
2018-06-14T08:03:01.731Z,97907.98
2018-06-14T08:04:06.789Z,97907.74
2018-06-14T08:05:13.378Z,97906.02
2018-06-14T08:06:21.547Z,97907.63
2018-06-14T08:07:28.549Z,97909.12
2018-06-14T08:08:36.785Z,97909.58
2018-06-14T08:09:41.522Z,97915.81
2018-06-14T08:10:46.215Z,97906.70
2018-06-14T08:11:51.824Z,97906.25
2018-06-14T08:12:58.637Z,97908.31
2018-06-14T08:14:05.030Z,97896.01
2018-06-14T08:15:10.650Z,97900.81
2018-06-14T08:16:16.149Z,97898.95
2018-06-14T08:17:21.042Z,97902.55
2018-06-14T08:18:25.781Z,97895.64
2018-06-14T08:19:31.969Z,97892.38
2018-06-14T08:20:37.540Z,97890.28
2018-06-14T08:21:42.243Z,97894.62
2018-06-14T08:22:48.044Z,97891.45
2018-06-14T08:23:54.328Z,97890.85
2018-06-14T08:25:05.852Z,97894.57
2018-06-14T08:26:11.361Z,97886.32
2018-06-14T08:27:21.518Z,97885.88
2018-06-14T08:28:28.555Z,97881.20
2018-06-14T08:29:38.149Z,97888.86
2018-06-14T08:30:44.425Z,97883.35
2018-06-14T08:31:51.546Z,97888.38
2018-06-14T08:32:56.759Z,97894.50
2018-06-14T08:34:02.515Z,97890.13
2018-06-14T08:35:07.928Z,97889.24
2018-06-14T08:36:13.789Z,97895.28
2018-06-14T08:37:18.726Z,97895.18
2018-06-14T08:38:24.549Z,97892.80
2018-06-14T08:39:30.143Z,97886.13
2018-06-14T08:40:34.978Z,97892.83
2018-06-14T08:41:39.969Z,97888.09
2018-06-14T08:42:44.744Z,97876.52
2018-06-14T08:43:49.458Z,97882.14
2018-06-14T08:44:54.739Z,97883.08
2018-06-14T08:46:00.139Z,97885.59
2018-06-14T08:47:05.815Z,97880.88
2018-06-14T08:48:10.562Z,97879.31
2018-06-14T08:49:15.610Z,97870.70
2018-06-14T08:50:20.280Z,97874.27
2018-06-14T08:51:25.397Z,97872.42
2018-06-14T08:52:31.207Z,97865.86
2018-06-14T08:53:35.959Z,97869.00
2018-06-14T08:54:40.482Z,97866.41
2018-06-14T08:55:45.022Z,97865.89
2018-06-14T08:56:51.364Z,97885.39
2018-06-14T08:57:57.169Z,97872.14
2018-06-14T08:59:01.737Z,97870.84
2018-06-14T09:00:06.449Z,97885.05
2018-06-14T09:01:11.086Z,97873.73
2018-06-14T09:02:17.375Z,97871.45
2018-06-14T09:03:22.668Z,97872.30
2018-06-14T09:04:28.039Z,97868.24
2018-06-14T09:05:32.696Z,97876.42
2018-06-14T09:06:37.405Z,97871.55
2018-06-14T09:07:42.115Z,97872.74
2018-06-14T09:08:46.812Z,97871.22
2018-06-14T09:09:51.619Z,97869.41
2018-06-14T09:10:56.357Z,97874.21
2018-06-14T09:12:01.093Z,97869.14
2018-06-14T09:13:07.584Z,97874.89
2018-06-14T09:14:12.276Z,97869.22
2018-06-14T09:15:17.432Z,97877.74
2018-06-14T09:16:23.055Z,97883.20
2018-06-14T09:17:28.025Z,97873.13
2018-06-14T09:18:32.698Z,97874.17
2018-06-14T09:19:40.007Z,97879.16
2018-06-14T09:20:52.307Z,97889.89
2018-06-14T09:21:58.118Z,97880.00
2018-06-14T09:23:04.350Z,97889.35
2018-06-14T09:24:09.105Z,97869.88
2018-06-14T09:25:13.796Z,97884.63
2018-06-14T09:26:18.723Z,97881.22
2018-06-14T09:27:23.816Z,97884.94
2018-06-14T09:28:28.468Z,97875.46
2018-06-14T09:29:34.372Z,97875.47
2018-06-14T09:30:39.083Z,97875.51
2018-06-14T09:31:44.673Z,97873.16
2018-06-14T09:32:50.232Z,97873.28
2018-06-14T09:33:55.438Z,97882.35
2018-06-14T09:35:00.193Z,97870.68
2018-06-14T09:36:05.649Z,97879.70
2018-06-14T09:37:12.002Z,97869.89
2018-06-14T09:38:17.532Z,97870.67
2018-06-14T09:39:22.937Z,97894.58
2018-06-14T09:40:29.015Z,97882.08
2018-06-14T09:41:33.834Z,97882.34
2018-06-14T09:42:38.485Z,97881.25
2018-06-14T09:43:43.196Z,97881.42
2018-06-14T09:44:49.137Z,97871.77
2018-06-14T09:45:54.328Z,97881.22
2018-06-14T09:47:02.237Z,97885.98
2018-06-14T09:48:09.922Z,97883.86
2018-06-14T09:49:17.508Z,97875.41
2018-06-14T09:50:23.680Z,97876.86
2018-06-14T09:51:28.473Z,97867.03
2018-06-14T09:52:33.183Z,97867.39
2018-06-14T09:53:40.087Z,97869.55
2018-06-14T09:54:46.071Z,97863.81
2018-06-14T09:55:51.307Z,97866.21
2018-06-14T09:56:56.338Z,97869.94
2018-06-14T09:58:02.091Z,97860.11
2018-06-14T09:59:07.273Z,97860.16
2018-06-14T10:00:14.422Z,97872.11
2018-06-14T10:01:19.155Z,97861.09
2018-06-14T10:02:23.897Z,97871.62
2018-06-14T10:03:28.557Z,97875.66
2018-06-14T10:04:33.245Z,97867.64
2018-06-14T10:05:39.832Z,97856.72
2018-06-14T10:06:46.303Z,97864.42
2018-06-14T10:07:57.201Z,97863.04
2018-06-14T10:09:02.513Z,97867.73
2018-06-14T10:10:07.243Z,97867.50
2018-06-14T10:11:13.104Z,97859.48
2018-06-14T10:12:19.166Z,97860.84
2018-06-14T10:13:25.234Z,97859.08
2018-06-14T10:14:33.148Z,97850.00
2018-06-14T10:15:38.795Z,97874.94
2018-06-14T10:16:43.530Z,97871.44
2018-06-14T10:17:50.567Z,97871.08
2018-06-14T10:18:56.036Z,97869.61
2018-06-14T10:20:00.852Z,97885.20
2018-06-14T10:21:06.860Z,97876.50
2018-06-14T10:23:35.753Z,97871.16
2018-06-14T10:24:44.678Z,97869.07
2018-06-14T10:25:52.383Z,97862.45
2018-06-14T10:27:00.518Z,97866.21
2018-06-14T10:28:07.024Z,97857.11
2018-06-14T10:29:12.241Z,97863.06
2018-06-14T10:30:18.364Z,97862.24
2018-06-14T10:31:25.003Z,97859.31
2018-06-14T10:32:29.982Z,97867.95
2018-06-14T10:33:42.471Z,97864.73
2018-06-14T10:34:48.706Z,97871.17
2018-06-14T10:35:54.305Z,97858.56
2018-06-14T10:37:00.337Z,97880.41
2018-06-14T10:38:07.557Z,97865.59
2018-06-14T10:39:14.368Z,97875.81
2018-06-14T10:40:20.148Z,97869.00
2018-06-14T10:41:27.008Z,97879.71
2018-06-14T10:42:32.184Z,97870.55
2018-06-14T10:43:37.377Z,97871.58
2018-06-14T10:44:44.378Z,97872.98
2018-06-14T10:45:51.252Z,97871.44
2018-06-14T10:46:55.845Z,97859.89
2018-06-14T10:48:02.132Z,97866.95
2018-06-14T10:49:07.744Z,97867.68
2018-06-14T10:50:13.428Z,97868.41
2018-06-14T10:51:18.451Z,97872.00
2018-06-14T10:52:24.855Z,97845.52
2018-06-14T10:53:31.398Z,97852.55
2018-06-14T10:54:36.056Z,97859.87
2018-06-14T10:55:50.509Z,97860.91
2018-06-14T10:56:55.159Z,97874.42
2018-06-14T10:58:00.840Z,97863.84
2018-06-14T10:59:06.351Z,97867.15
2018-06-14T11:00:15.159Z,97866.73
2018-06-14T11:01:20.449Z,97873.29
2018-06-14T11:02:25.855Z,97861.72
2018-06-14T11:03:30.593Z,97850.41
2018-06-14T11:04:37.609Z,97847.25
2018-06-14T11:05:45.353Z,97847.98
2018-06-14T11:06:51.406Z,97849.59
2018-06-14T11:08:02.288Z,97867.13
2018-06-14T11:09:08.230Z,97851.80
2018-06-14T11:10:13.570Z,97847.92
2018-06-14T11:11:21.398Z,97857.83
2018-06-14T11:12:28.294Z,97852.55
2018-06-14T11:13:37.363Z,97843.98
2018-06-14T11:14:44.598Z,97846.98
2018-06-14T11:15:55.767Z,97845.19
2018-06-14T11:17:01.807Z,97832.52
2018-06-14T11:18:09.439Z,97828.23
2018-06-14T11:19:16.908Z,97844.23
2018-06-14T11:20:32.035Z,97846.05
2018-06-14T11:21:40.669Z,97848.05
2018-06-14T11:22:45.436Z,97861.56
2018-06-14T11:23:51.636Z,97844.52
2018-06-14T11:25:03.059Z,97835.14
2018-06-14T11:27:21.328Z,97841.17
2018-06-14T11:28:27.609Z,97837.63
2018-06-14T11:29:34.045Z,97841.38
2018-06-14T11:30:40.253Z,97835.59
2018-06-14T11:31:46.835Z,97832.49
2018-06-14T11:32:53.786Z,97835.51
2018-06-14T11:33:58.885Z,97844.75
2018-06-14T11:35:05.477Z,97851.95
2018-06-14T11:36:10.165Z,97843.92
2018-06-14T11:37:15.819Z,97840.69
2018-06-14T11:38:22.225Z,97830.81
2018-06-14T11:39:27.758Z,97843.80
2018-06-14T11:40:33.826Z,97816.87
2018-06-14T11:41:39.260Z,97818.88
2018-06-14T11:42:44.736Z,97840.84
2018-06-14T11:43:49.664Z,97841.25
2018-06-14T11:44:56.507Z,97842.91
2018-06-14T11:46:01.003Z,97832.34
2018-06-14T11:47:05.593Z,97824.16
2018-06-14T11:48:10.792Z,97832.72
2018-06-14T11:49:16.496Z,97837.56
2018-06-14T11:50:21.500Z,97833.93
2018-06-14T11:51:27.893Z,97826.18
2018-06-14T11:52:32.811Z,97819.46
2018-06-14T11:53:38.566Z,97837.08
2018-06-14T11:54:46.913Z,97830.39
2018-06-14T11:55:53.003Z,97833.88
2018-06-14T11:57:01.267Z,97833.60
2018-06-14T11:58:06.590Z,97814.17
2018-06-14T11:59:11.231Z,97835.95
2018-06-14T12:00:16.765Z,97832.77
2018-06-14T12:01:22.818Z,97824.70
2018-06-14T12:02:27.501Z,97819.30
2018-06-14T12:03:33.540Z,97812.90
2018-06-14T12:04:39.355Z,97809.86
2018-06-14T12:05:44.447Z,97806.70
2018-06-14T12:06:49.963Z,97812.21
2018-06-14T12:07:55.236Z,97814.88
2018-06-14T12:08:59.892Z,97815.40
2018-06-14T12:10:04.958Z,97812.57
2018-06-14T12:11:11.653Z,97803.72
2018-06-14T12:12:17.213Z,97798.93
2018-06-14T12:13:22.767Z,97797.67
2018-06-14T12:14:29.194Z,97792.25
2018-06-14T12:15:33.989Z,97804.40
2018-06-14T12:16:38.677Z,97808.55
2018-06-14T12:17:43.669Z,97807.42
2018-06-14T12:18:48.230Z,97807.47
2018-06-14T12:19:53.802Z,97800.78
2018-06-14T12:21:00.080Z,97790.24
2018-06-14T12:22:06.267Z,97790.39
2018-06-14T12:23:11.745Z,97769.22
2018-06-14T12:24:17.366Z,97764.45
2018-06-14T12:25:21.865Z,97795.77
2018-06-14T12:26:28.414Z,97777.38
2018-06-14T12:27:34.736Z,97772.44
2018-06-14T12:28:39.277Z,97783.94
2018-06-14T12:29:43.803Z,97780.27
2018-06-14T12:30:49.198Z,97787.52
2018-06-14T12:31:53.800Z,97797.98
2018-06-14T12:32:59.267Z,97783.00
2018-06-14T12:34:04.267Z,97786.26
2018-06-14T12:35:10.482Z,97788.18
2018-06-14T12:36:15.034Z,97785.95
2018-06-14T12:37:20.567Z,97796.36
2018-06-14T12:38:26.289Z,97778.89
2018-06-14T12:39:30.954Z,97780.56
2018-06-14T12:40:35.847Z,97784.06
2018-06-14T12:41:41.838Z,97771.88
2018-06-14T12:48:18.325Z,97781.08
2018-06-14T12:49:23.563Z,97771.68
2018-06-14T12:50:30.443Z,97783.08
2018-06-14T12:51:38.685Z,97776.57
2018-06-14T12:52:44.066Z,97766.84
2018-06-14T12:53:48.816Z,97755.27
2018-06-14T12:54:56.905Z,97777.28
2018-06-14T12:56:03.346Z,97745.84
2018-06-14T12:57:08.305Z,97725.89
2018-06-14T12:58:13.935Z,97751.02
2018-06-14T12:59:18.653Z,97774.75
2018-06-14T13:00:25.531Z,97756.44